Time;durP1;ratioP1;P1;durP2;ratioP2;P2;SDS_P1;SDS_P2;PMS_P1;PMS_P2;Temp;Humidity;BMP_temperature;BMP_pressure;BME280_temperature;BME280_humidity;BME280_pressure;Samples;Min_cycle;Max_cycle;Signal;HPM_P1;HPM_P2
2022/03/16 00:01:42;;;;;;;44.63;21.88;;;;;;;2.57;79.49;102435.34;4990286;28;20053;-70
2022/03/16 00:04:07;;;;;;;42.97;22.20;;;;;;;2.67;78.21;102440.56;4971899;28;20035;-70
2022/03/16 00:06:33;;;;;;;46.53;23.17;;;;;;;2.61;78.85;102444.13;4990505;28;20088;-70
2022/03/16 00:08:58;;;;;;;49.35;24.05;;;;;;;2.55;80.28;102438.84;4991126;28;20064;-70
2022/03/16 00:11:23;;;;;;;59.90;30.73;;;;;;;2.57;82.17;102443.25;4991991;28;20046;-70
2022/03/16 00:13:49;;;;;;;55.47;25.80;;;;;;;2.55;81.03;102445.00;4990559;28;20101;-70
2022/03/16 00:16:14;;;;;;;44.95;24.83;;;;;;;2.40;79.96;102447.69;4991143;28;20046;-70
2022/03/16 00:18:40;;;;;;;47.75;24.50;;;;;;;2.41;79.06;102453.81;4991319;28;20050;-70
2022/03/16 00:21:05;;;;;;;42.00;20.90;;;;;;;2.34;78.73;102448.59;4979641;28;20488;-70
2022/03/16 00:23:30;;;;;;;39.67;19.95;;;;;;;2.24;79.45;102457.41;4970777;28;20054;-70
2022/03/16 00:25:56;;;;;;;37.13;20.33;;;;;;;2.08;80.09;102453.06;4969469;28;20039;-70
2022/03/16 00:28:21;;;;;;;34.90;18.70;;;;;;;2.07;80.19;102462.72;4969842;28;20046;-70
2022/03/16 00:30:47;;;;;;;33.10;19.52;;;;;;;2.07;79.27;102465.34;4973284;28;20050;-70
2022/03/16 00:33:14;;;;;;;37.20;18.27;;;;;;;1.92;77.77;102456.59;4972043;28;20027;-70
2022/03/16 00:35:40;;;;;;;36.00;18.30;;;;;;;1.90;78.87;102461.84;4953935;28;20050;-70
2022/03/16 00:38:05;;;;;;;37.85;18.25;;;;;;;1.80;78.98;102462.72;4972493;28;20066;-70
2022/03/16 00:40:33;;;;;;;35.05;18.13;;;;;;;1.81;78.97;102461.88;4954002;28;20035;-70
2022/03/16 00:43:01;;;;;;;29.05;16.42;;;;;;;1.74;77.89;102457.50;4971817;28;20043;-70
2022/03/16 00:45:28;;;;;;;37.08;18.08;;;;;;;1.77;79.06;102463.63;4970068;28;20062;-70
2022/03/16 00:47:53;;;;;;;39.92;19.95;;;;;;;1.82;80.62;102458.38;4971921;28;20050;-70
2022/03/16 00:50:18;;;;;;;38.08;20.52;;;;;;;1.81;81.30;102461.88;4971900;28;20061;-70
2022/03/16 00:52:44;;;;;;;33.42;18.70;;;;;;;1.83;79.54;102464.50;4971375;28;20046;-70
2022/03/16 00:55:09;;;;;;;35.33;20.13;;;;;;;1.84;80.35;102471.50;4971536;28;20053;-70
2022/03/16 00:57:35;;;;;;;36.58;19.52;;;;;;;1.90;79.44;102468.88;4969366;28;20069;-70
2022/03/16 01:00:01;;;;;;;38.17;20.40;;;;;;;1.77;80.25;102468.88;4960422;28;20043;-70
2022/03/16 01:02:27;;;;;;;36.33;17.05;;;;;;;1.76;81.14;102475.03;4971157;28;20459;-71
2022/03/16 01:04:52;;;;;;;34.58;18.25;;;;;;;1.67;80.39;102471.53;4969360;28;20053;-70
2022/03/16 01:07:18;;;;;;;35.55;18.05;;;;;;;1.74;79.84;102474.13;4971964;28;20049;-70
2022/03/16 01:09:43;;;;;;;35.70;17.38;;;;;;;1.55;79.11;102477.66;4970491;28;20184;-70
2022/03/16 01:12:09;;;;;;;38.33;18.17;;;;;;;1.50;80.69;102469.75;4971908;28;20043;-70
2022/03/16 01:14:35;;;;;;;36.03;19.60;;;;;;;1.48;80.89;102473.28;4973501;28;20085;-70
2022/03/16 01:17:01;;;;;;;40.63;19.70;;;;;;;1.54;82.12;102465.38;4971851;28;20082;-70
2022/03/16 01:19:26;;;;;;;50.13;22.23;;;;;;;1.53;82.68;102469.75;4972655;28;20046;-70
2022/03/16 01:21:53;;;;;;;43.80;22.58;;;;;;;1.58;83.64;102468.91;4990364;28;20046;-70
2022/03/16 01:24:19;;;;;;;41.75;23.33;;;;;;;1.71;82.97;102474.16;4972529;28;20141;-70
2022/03/16 01:26:44;;;;;;;45.85;22.92;;;;;;;1.60;81.92;102461.88;4989012;28;20061;-70
2022/03/16 01:29:10;;;;;;;53.15;26.10;;;;;;;1.52;83.95;102456.63;4989608;28;20053;-70
2022/03/16 01:31:35;;;;;;;51.50;24.02;;;;;;;1.32;83.93;102459.25;4989729;28;20054;-70
2022/03/16 01:34:01;;;;;;;64.47;27.63;;;;;;;1.52;83.36;102454.00;4987735;28;20069;-70
2022/03/16 01:36:26;;;;;;;58.42;27.52;;;;;;;1.61;83.22;102448.75;4987970;28;20503;-70
2022/03/16 01:38:51;;;;;;;58.90;25.80;;;;;;;1.65;82.37;102444.34;4990533;28;20062;-70
2022/03/16 01:41:17;;;;;;;57.30;28.35;;;;;;;1.66;82.10;102444.38;4987649;28;20038;-70
2022/03/16 01:43:42;;;;;;;62.28;27.90;;;;;;;1.62;82.50;102442.59;4989480;28;20656;-70
2022/03/16 01:46:08;;;;;;;61.45;28.83;;;;;;;1.59;82.51;102447.84;4988582;28;20042;-70
2022/03/16 01:48:36;;;;;;;53.38;27.48;;;;;;;1.63;81.74;102448.75;4970987;28;20536;-70
2022/03/16 01:51:03;;;;;;;57.85;26.73;;;;;;;1.61;81.09;102454.00;4990136;28;20050;-69
2022/03/16 01:53:28;;;;;;;54.42;25.73;;;;;;;1.54;81.74;102454.88;4989698;28;20055;-70
2022/03/16 01:55:54;;;;;;;47.20;23.88;;;;;;;1.53;81.17;102459.25;4986723;28;20038;-70
2022/03/16 01:58:20;;;;;;;48.40;24.45;;;;;;;1.32;81.42;102453.13;4987753;28;20053;-70
2022/03/16 02:00:46;;;;;;;46.70;23.65;;;;;;;1.20;81.56;102452.22;4968668;28;20592;-70
2022/03/16 02:03:11;;;;;;;51.92;23.77;;;;;;;1.26;81.16;102454.88;4969348;28;20058;-70
2022/03/16 02:05:37;;;;;;;44.97;22.42;;;;;;;1.15;81.46;102453.94;4968211;28;20833;-69
2022/03/16 02:08:05;;;;;;;46.35;23.75;;;;;;;1.20;81.35;102454.84;4969152;28;20046;-71
2022/03/16 02:10:31;;;;;;;43.78;21.70;;;;;;;1.06;80.88;102453.09;4969927;28;20476;-70
2022/03/16 02:12:57;;;;;;;50.78;22.58;;;;;;;0.79;81.35;102449.50;4973069;28;20203;-70
2022/03/16 02:15:23;;;;;;;42.50;21.95;;;;;;;0.91;81.81;102453.94;4986657;28;20075;-71
2022/03/16 02:17:55;;;;;;;46.58;22.30;;;;;;;1.04;82.62;102455.69;4970728;28;20046;-71
2022/03/16 02:20:24;;;;;;;44.00;22.65;;;;;;;1.09;81.33;102464.47;4988722;28;20042;-71
2022/03/16 02:22:49;;;;;;;43.17;23.20;;;;;;;1.06;81.24;102467.09;4987852;28;20038;-70
2022/03/16 02:25:16;;;;;;;54.13;23.88;;;;;;;1.20;80.52;102459.22;4988234;28;20223;-70
2022/03/16 02:27:42;;;;;;;47.13;24.15;;;;;;;1.11;80.49;102457.47;4988597;28;20140;-70
2022/03/16 02:30:08;;;;;;;48.50;22.40;;;;;;;0.98;79.78;102456.56;4970431;28;20575;-70
2022/03/16 02:32:33;;;;;;;41.05;21.88;;;;;;;0.85;81.13;102454.75;4988715;28;20103;-70
2022/03/16 02:34:58;;;;;;;41.88;22.50;;;;;;;0.90;80.74;102455.66;4989313;28;20125;-71
2022/03/16 02:37:24;;;;;;;40.45;21.45;;;;;;;0.89;81.03;102458.28;4989679;28;20039;-70
2022/03/16 02:39:49;;;;;;;49.72;23.50;;;;;;;0.66;83.00;102445.09;4970647;28;20125;-70
2022/03/16 02:42:14;;;;;;;43.10;21.77;;;;;;;0.39;83.52;102441.47;4989041;28;20038;-70
2022/03/16 02:44:40;;;;;;;46.47;25.48;;;;;;;0.65;84.35;102448.56;4989546;28;20038;-70
2022/03/16 02:47:06;;;;;;;50.30;24.83;;;;;;;0.77;83.04;102453.88;4988544;28;20034;-70
2022/03/16 02:49:31;;;;;;;48.47;23.77;;;;;;;0.71;81.95;102446.88;4992334;28;20730;-71
2022/03/16 02:51:57;;;;;;;49.30;24.35;;;;;;;0.54;82.93;102445.03;4991743;28;20101;-70
2022/03/16 02:54:23;;;;;;;53.55;25.15;;;;;;;0.51;83.99;102432.81;4974508;28;20038;-71
2022/03/16 02:56:48;;;;;;;46.05;23.23;;;;;;;0.55;83.66;102431.91;4992867;28;20407;-70
2022/03/16 02:59:14;;;;;;;86.40;27.20;;;;;;;0.46;84.89;102430.16;4993532;28;20571;-70
2022/03/16 03:01:40;;;;;;;93.88;26.30;;;;;;;0.32;84.83;102438.84;4993004;28;20034;-70
2022/03/16 03:04:05;;;;;;;79.65;27.38;;;;;;;0.46;84.31;102431.91;4992253;28;20057;-71
2022/03/16 03:06:31;;;;;;;61.58;25.63;;;;;;;0.30;84.82;102437.94;4994111;28;20035;-70
2022/03/16 03:08:56;;;;;;;99.78;27.73;;;;;;;0.33;84.01;102430.09;4994143;28;20050;-70
2022/03/16 03:11:21;;;;;;;200.35;32.97;;;;;;;0.29;84.31;102426.56;4993970;28;20061;-70
2022/03/16 03:13:47;;;;;;;113.05;31.25;;;;;;;0.39;85.12;102420.47;4996116;28;20042;-70
2022/03/16 03:16:12;;;;;;;66.35;28.80;;;;;;;0.48;84.96;102415.28;4993221;28;20089;-70
2022/03/16 03:18:37;;;;;;;164.55;37.95;;;;;;;0.78;86.33;102425.00;4993645;28;20046;-70
2022/03/16 03:21:04;;;;;;;80.25;35.63;;;;;;;0.92;86.71;102429.41;4975098;28;20791;-70
2022/03/16 03:23:29;;;;;;;88.68;36.90;;;;;;;1.12;86.73;102435.56;4992347;28;20073;-70
2022/03/16 03:25:55;;;;;;;100.40;37.10;;;;;;;1.16;87.05;102428.59;4991897;28;20038;-70
2022/03/16 03:28:20;;;;;;;127.20;40.00;;;;;;;1.13;86.94;102425.94;4990237;28;20077;-70
2022/03/16 03:30:45;;;;;;;106.35;37.55;;;;;;;1.16;86.91;102413.69;4990573;28;20050;-70
2022/03/16 03:33:11;;;;;;;168.70;43.65;;;;;;;1.19;86.68;102418.94;4976042;28;20039;-70
2022/03/16 03:35:36;;;;;;;86.38;38.42;;;;;;;1.22;86.50;102426.81;4972825;28;20416;-70
2022/03/16 03:38:02;;;;;;;81.03;37.95;;;;;;;1.25;85.88;102434.69;4970732;28;20141;-70
2022/03/16 03:40:27;;;;;;;76.80;37.05;;;;;;;1.29;86.10;102432.97;4971816;28;20065;-70
2022/03/16 03:42:52;;;;;;;85.32;38.97;;;;;;;1.24;85.60;102426.81;4971392;28;20101;-70
2022/03/16 03:45:18;;;;;;;220.70;45.22;;;;;;;1.11;86.07;102420.69;4971670;28;20059;-71
2022/03/16 03:47:44;;;;;;;123.55;40.95;;;;;;;1.09;85.65;102434.69;4971831;28;20043;-70
2022/03/16 03:50:11;;;;;;;87.50;36.25;;;;;;;1.04;86.33;102426.78;4972169;28;20586;-70
2022/03/16 03:52:37;;;;;;;397.90;49.25;;;;;;;0.91;86.16;102422.41;4971824;28;20034;-70
2022/03/16 03:55:02;;;;;;;119.50;35.47;;;;;;;0.90;86.35;102413.63;4970433;28;20046;-70
2022/03/16 03:57:28;;;;;;;75.80;36.50;;;;;;;1.11;86.49;102425.09;4970463;28;20045;-70
2022/03/16 03:59:53;;;;;;;86.97;37.83;;;;;;;1.28;87.06;102431.22;4963933;28;20077;-70
2022/03/16 04:02:19;;;;;;;80.60;38.55;;;;;;;1.32;86.43;102429.47;4992900;28;20061;-70
2022/03/16 04:04:44;;;;;;;90.20;37.80;;;;;;;1.33;86.81;102425.97;4992640;28;20710;-70
2022/03/16 04:07:09;;;;;;;81.18;37.85;;;;;;;1.20;85.20;102431.19;4994275;28;20057;-70
2022/03/16 04:09:35;;;;;;;76.95;36.38;;;;;;;1.04;85.33;102424.16;4994335;28;20054;-70
2022/03/16 04:12:00;;;;;;;85.13;37.28;;;;;;;0.95;85.80;102426.78;4995431;28;20827;-70
2022/03/16 04:14:26;;;;;;;79.47;37.03;;;;;;;0.56;85.29;102425.81;4995801;28;20042;-71
2022/03/16 04:16:51;;;;;;;75.70;38.20;;;;;;;0.75;86.37;102424.09;4995899;28;20039;-71
2022/03/16 04:19:17;;;;;;;82.80;38.58;;;;;;;0.91;87.05;102422.41;4996749;28;20096;-70
2022/03/16 04:21:42;;;;;;;82.10;37.95;;;;;;;1.07;87.17;102413.69;4995987;28;20034;-70
2022/03/16 04:24:07;;;;;;;93.90;38.85;;;;;;;1.12;86.52;102414.56;4995885;28;20045;-70
2022/03/16 04:26:33;;;;;;;85.63;39.13;;;;;;;1.36;87.76;102412.84;4975745;28;20514;-70
2022/03/16 04:28:59;;;;;;;96.72;42.17;;;;;;;1.27;86.58;102416.31;4992016;28;20046;-69
2022/03/16 04:31:24;;;;;;;83.55;38.85;;;;;;;1.21;86.97;102422.47;4991760;28;20161;-70
2022/03/16 04:33:50;;;;;;;99.57;40.78;;;;;;;1.21;85.98;102419.84;4976663;28;20065;-70
2022/03/16 04:36:16;;;;;;;89.55;40.85;;;;;;;1.22;86.32;102418.94;4994569;28;20176;-70
2022/03/16 04:38:41;;;;;;;100.32;41.28;;;;;;;1.17;86.56;102425.94;4993191;28;20107;-70
2022/03/16 04:41:06;;;;;;;97.30;42.70;;;;;;;1.21;86.47;102422.47;4992725;28;20042;-70
2022/03/16 04:43:32;;;;;;;95.32;42.55;;;;;;;1.12;86.63;102425.06;4991398;28;20038;-70
2022/03/16 04:45:57;;;;;;;91.05;42.60;;;;;;;1.26;86.40;102420.72;4991267;28;20463;-69
2022/03/16 04:48:23;;;;;;;97.43;43.83;;;;;;;1.30;86.44;102426.81;4992395;28;20053;-69
2022/03/16 04:50:48;;;;;;;101.57;42.60;;;;;;;1.35;86.55;102430.31;4973500;28;20069;-69
2022/03/16 04:53:13;;;;;;;88.25;41.28;;;;;;;1.36;86.39;102425.97;4993493;28;20102;-69
2022/03/16 04:55:39;;;;;;;105.22;44.33;;;;;;;1.31;86.09;102423.34;4994796;28;20034;-70
2022/03/16 04:58:06;;;;;;;95.85;43.03;;;;;;;1.30;86.53;102421.56;4996706;28;20053;-70
2022/03/16 05:00:32;;;;;;;94.43;42.25;;;;;;;1.38;86.71;102425.09;4997369;28;20038;-70
2022/03/16 05:02:58;;;;;;;84.65;39.63;;;;;;;1.21;85.66;102425.09;4996994;28;20074;-70
2022/03/16 05:05:23;;;;;;;95.25;42.22;;;;;;;1.15;86.77;102424.19;4996467;28;20046;-69
2022/03/16 05:07:48;;;;;;;85.22;40.47;;;;;;;1.16;86.64;102428.59;4994069;28;20050;-69
2022/03/16 05:10:14;;;;;;;98.07;42.25;;;;;;;1.21;85.71;102426.84;4993658;28;20073;-70
2022/03/16 05:12:41;;;;;;;100.20;44.35;;;;;;;1.23;86.60;102430.34;4976910;28;20030;-69
2022/03/16 05:15:15;;;;;;;99.65;42.00;;;;;;;1.28;87.02;102429.44;4995436;28;20057;-70
2022/03/16 05:17:41;;;;;;;101.13;43.05;;;;;;;1.30;87.17;102426.81;4994802;28;20050;-69
2022/03/16 05:20:07;;;;;;;93.18;42.60;;;;;;;1.23;86.20;102432.97;4994840;28;20034;-69
2022/03/16 05:22:52;;;;;;;91.88;41.40;;;;;;;1.16;86.42;102433.84;4992608;28;20037;-69
2022/03/16 05:25:20;;;;;;;99.38;44.38;;;;;;;1.21;86.77;102434.72;4993249;28;20099;-69
2022/03/16 05:27:45;;;;;;;99.90;45.83;;;;;;;1.20;87.25;102433.81;4990605;28;20041;-69
2022/03/16 05:30:13;;;;;;;119.20;47.75;;;;;;;1.21;87.21;102430.34;4972636;28;20050;-70
2022/03/16 05:32:42;;;;;;;110.88;47.75;;;;;;;1.21;87.57;102429.47;4991351;28;20038;-69
2022/03/16 05:35:13;;;;;;;115.78;48.75;;;;;;;1.27;87.62;102439.97;4990661;28;20539;-69
2022/03/16 05:37:40;;;;;;;126.32;51.88;;;;;;;1.33;87.97;102436.47;4987868;28;20053;-69
2022/03/16 05:40:07;;;;;;;127.63;54.35;;;;;;;1.42;87.67;102444.38;4990998;28;20042;-69
2022/03/16 05:42:33;;;;;;;127.45;53.72;;;;;;;1.44;87.87;102439.97;4972833;28;20050;-70
2022/03/16 05:44:59;;;;;;;128.07;55.05;;;;;;;1.48;87.68;102434.72;4988331;28;20038;-69
2022/03/16 05:47:25;;;;;;;124.50;53.33;;;;;;;1.48;88.16;102436.47;4992321;28;20070;-69
2022/03/16 05:49:54;;;;;;;136.60;55.35;;;;;;;1.54;88.04;102437.34;4991709;28;20053;-69
2022/03/16 05:52:23;;;;;;;147.38;57.40;;;;;;;1.62;87.91;102436.47;4990087;28;20102;-69
2022/03/16 05:54:54;;;;;;;145.90;58.10;;;;;;;1.79;88.35;102443.44;4974360;28;20104;-69
2022/03/16 05:57:20;;;;;;;137.95;56.85;;;;;;;1.80;88.10;102439.06;4993368;28;20735;-70
2022/03/16 05:59:46;;;;;;;140.75;58.40;;;;;;;1.97;88.26;102441.69;4989956;28;20107;-70
2022/03/16 06:02:13;;;;;;;152.13;62.47;;;;;;;2.21;88.52;102446.91;4988207;28;20034;-69
2022/03/16 06:04:39;;;;;;;158.05;64.07;;;;;;;2.33;88.32;102449.47;4988274;28;20102;-70
2022/03/16 06:07:06;;;;;;;161.43;62.72;;;;;;;2.38;87.83;102443.31;4987537;28;20160;-70
2022/03/16 06:09:31;;;;;;;157.32;63.45;;;;;;;2.52;88.75;102445.03;4985720;28;20064;-69
2022/03/16 06:11:57;;;;;;;157.70;65.43;;;;;;;2.64;87.55;102445.84;4964587;28;20042;-69
2022/03/16 06:14:23;;;;;;;172.93;66.53;;;;;;;2.69;87.79;102450.19;4980707;28;20739;-70
2022/03/16 06:16:48;;;;;;;170.07;65.38;;;;;;;2.91;87.81;102452.72;4980963;28;20126;-70
2022/03/16 06:19:14;;;;;;;156.80;66.50;;;;;;;3.03;87.76;102447.38;4963434;28;20126;-69
2022/03/16 06:21:39;;;;;;;172.43;67.40;;;;;;;3.05;87.54;102443.84;4960281;28;20104;-69
2022/03/16 06:24:05;;;;;;;175.23;69.35;;;;;;;3.09;87.86;102448.22;4965605;28;20046;-70
2022/03/16 06:26:31;;;;;;;178.45;70.60;;;;;;;3.16;87.46;102446.41;4970308;28;20133;-70
2022/03/16 06:28:56;;;;;;;172.13;70.40;;;;;;;3.17;87.43;102453.44;4984890;28;20128;-69
2022/03/16 06:31:23;;;;;;;172.55;68.18;;;;;;;3.16;87.36;102446.41;4984173;28;20046;-70
2022/03/16 06:33:49;;;;;;;164.68;67.07;;;;;;;3.25;86.61;102448.13;4984371;28;20042;-70
2022/03/16 06:36:14;;;;;;;164.82;67.22;;;;;;;3.23;86.89;102453.41;4982635;28;20085;-70
2022/03/16 06:38:40;;;;;;;158.48;65.57;;;;;;;3.27;86.84;102447.22;4983474;28;20822;-70
2022/03/16 06:41:05;;;;;;;174.15;68.57;;;;;;;3.38;86.55;102444.50;4982970;28;20039;-70
2022/03/16 06:43:31;;;;;;;167.35;68.32;;;;;;;3.46;86.87;102437.38;4982738;28;20073;-70
2022/03/16 06:45:56;;;;;;;154.27;66.40;;;;;;;3.58;86.23;102447.84;4982312;28;20038;-71
2022/03/16 06:48:23;;;;;;;148.50;65.07;;;;;;;3.97;85.86;102437.81;4982963;28;20043;-70
2022/03/16 06:50:50;;;;;;;162.45;65.05;;;;;;;4.22;85.47;102435.81;4983171;28;20050;-70
2022/03/16 06:53:15;;;;;;;161.45;63.63;;;;;;;4.45;84.14;102440.78;4981373;28;20101;-72
2022/03/16 06:55:40;;;;;;;157.20;64.20;;;;;;;4.72;83.64;102449.25;4963984;28;20066;-72
2022/03/16 06:58:06;;;;;;;144.75;60.70;;;;;;;4.75;82.88;102447.44;4983757;28;20053;-71
2022/03/16 07:00:31;;;;;;;137.70;58.67;;;;;;;4.82;82.24;102449.13;4966306;28;20058;-71
2022/03/16 07:03:00;;;;;;;134.38;58.40;;;;;;;4.94;81.24;102451.59;4984165;28;20050;-71
2022/03/16 07:05:30;;;;;;;123.93;58.17;;;;;;;5.25;80.26;102451.16;4984376;28;20172;-71
2022/03/16 07:08:01;;;;;;;117.95;54.55;;;;;;;5.25;80.19;102452.91;4984672;28;20040;-71
2022/03/16 07:10:27;;;;;;;124.30;56.33;;;;;;;5.69;78.21;102455.72;4979042;28;20046;-71
2022/03/16 07:12:53;;;;;;;106.18;52.33;;;;;;;5.70;77.80;102461.88;4985336;28;20049;-71
2022/03/16 07:15:18;;;;;;;104.80;49.63;;;;;;;5.74;78.19;102457.41;4985167;28;20469;-71
2022/03/16 07:17:44;;;;;;;92.45;47.28;;;;;;;6.12;76.86;102457.59;4987189;28;20042;-71
2022/03/16 07:20:10;;;;;;;86.72;44.78;;;;;;;5.95;76.78;102454.41;4986138;28;20118;-71
2022/03/16 07:22:36;;;;;;;80.03;41.45;;;;;;;5.92;76.90;102451.81;4967616;28;20057;-71
2022/03/16 07:25:03;;;;;;;74.40;40.35;;;;;;;5.85;76.85;102443.09;4984848;28;20841;-71
2022/03/16 07:27:29;;;;;;;76.20;37.97;;;;;;;5.85;77.36;102451.03;4984651;28;20558;-71
2022/03/16 07:29:54;;;;;;;67.85;36.80;;;;;;;5.84;76.46;102457.22;4965279;28;20126;-71
2022/03/16 07:32:20;;;;;;;68.30;34.28;;;;;;;6.32;75.53;102440.47;4981595;28;20642;-72
2022/03/16 07:34:46;;;;;;;58.25;31.48;;;;;;;6.28;74.39;102434.38;4983471;28;20508;-71
2022/03/16 07:37:12;;;;;;;54.58;31.30;;;;;;;6.36;74.52;102443.03;4985288;28;20073;-72
2022/03/16 07:39:37;;;;;;;54.67;32.72;;;;;;;6.41;74.80;102440.28;4984237;28;20038;-72
2022/03/16 07:42:03;;;;;;;55.20;30.58;;;;;;;6.55;74.54;102440.88;4983551;28;20046;-69
2022/03/16 07:44:29;;;;;;;53.75;28.38;;;;;;;6.51;74.24;102435.66;4965755;28;20836;-70
2022/03/16 07:46:54;;;;;;;54.53;29.08;;;;;;;7.10;73.01;102434.34;4983570;28;20058;-70
2022/03/16 07:49:20;;;;;;;50.78;28.52;;;;;;;7.21;72.30;102432.31;4983479;28;20061;-70
2022/03/16 07:51:45;;;;;;;56.88;29.60;;;;;;;7.14;72.39;102433.38;4949129;28;20822;-69
2022/03/16 07:54:10;;;;;;;47.85;26.92;;;;;;;6.98;72.08;102424.91;4983346;28;20497;-70
2022/03/16 07:56:36;;;;;;;48.88;27.77;;;;;;;7.35;72.03;102421.38;4983853;28;20476;-72
2022/03/16 07:59:02;;;;;;;44.92;23.42;;;;;;;7.50;71.42;102417.47;4983600;28;20038;-73
2022/03/16 08:01:28;;;;;;;41.58;24.40;;;;;;;7.52;70.60;102413.00;4983330;28;20038;-70
2022/03/16 08:03:54;;;;;;;52.13;25.85;;;;;;;7.66;71.04;102413.50;4965818;28;20050;-70
2022/03/16 08:06:20;;;;;;;44.10;24.27;;;;;;;7.81;70.09;102409.59;4983704;28;20129;-70
2022/03/16 08:08:45;;;;;;;40.30;23.55;;;;;;;7.90;70.01;102408.47;4983034;28;20042;-70
2022/03/16 08:11:11;;;;;;;39.22;23.60;;;;;;;7.79;70.54;102396.34;4983921;28;20042;-70
2022/03/16 08:13:37;;;;;;;38.97;22.25;;;;;;;7.90;69.70;102398.72;4983337;28;20042;-70
2022/03/16 08:16:04;;;;;;;39.65;23.17;;;;;;;8.03;70.42;102394.81;4983888;28;20046;-71
2022/03/16 08:18:29;;;;;;;40.13;21.85;;;;;;;8.06;69.62;102391.19;4982872;28;20061;-70
2022/03/16 08:20:56;;;;;;;37.83;20.90;;;;;;;7.93;70.56;102397.75;4983481;28;20038;-71
2022/03/16 08:23:21;;;;;;;37.78;20.65;;;;;;;8.13;69.88;102392.75;4965594;28;20045;-71
2022/03/16 08:25:47;;;;;;;35.55;18.55;;;;;;;7.98;69.25;102390.53;4983366;28;20053;-71
2022/03/16 08:28:12;;;;;;;34.97;19.67;;;;;;;8.40;69.04;102385.81;4983357;28;20034;-71
2022/03/16 08:30:38;;;;;;;31.83;17.02;;;;;;;8.18;67.71;102388.22;4982891;28;20834;-71
2022/03/16 08:33:03;;;;;;;31.50;18.05;;;;;;;8.08;68.81;102377.84;4985180;28;20103;-72
2022/03/16 08:35:29;;;;;;;35.47;17.95;;;;;;;8.18;67.83;102382.91;4985139;28;20042;-71
2022/03/16 08:37:55;;;;;;;32.45;17.45;;;;;;;8.61;67.30;102378.13;4985651;28;20042;-71
2022/03/16 08:40:21;;;;;;;33.72;16.75;;;;;;;8.70;66.96;102383.16;4987283;28;20038;-70
2022/03/16 08:42:48;;;;;;;27.02;16.08;;;;;;;8.74;66.58;102379.50;4968201;28;20057;-71
2022/03/16 08:45:13;;;;;;;26.90;14.85;;;;;;;8.98;66.32;102378.69;4966810;28;20034;-71
2022/03/16 08:47:39;;;;;;;26.90;14.63;;;;;;;9.20;64.99;102372.69;4986490;28;20039;-71
2022/03/16 08:50:06;;;;;;;31.10;14.02;;;;;;;9.22;64.20;102381.50;4967181;28;20855;-71
2022/03/16 08:52:32;;;;;;;26.73;14.23;;;;;;;9.24;64.72;102372.56;4986218;28;20947;-71
2022/03/16 08:54:57;;;;;;;29.88;13.57;;;;;;;9.08;63.91;102381.94;4986032;28;20058;-71
2022/03/16 08:57:23;;;;;;;22.80;13.50;;;;;;;9.24;63.84;102379.66;4985321;28;20097;-72
2022/03/16 08:59:49;;;;;;;23.83;14.25;;;;;;;9.20;64.13;102376.22;4986141;28;20046;-71
2022/03/16 09:02:14;;;;;;;23.92;12.88;;;;;;;9.34;63.53;102383.75;4986516;28;20798;-71
2022/03/16 09:04:39;;;;;;;19.52;11.55;;;;;;;9.36;62.56;102375.72;4985738;28;20888;-73
2022/03/16 09:07:05;;;;;;;23.92;11.85;;;;;;;9.37;62.81;102383.63;4986331;28;20034;-72
2022/03/16 09:09:31;;;;;;;21.90;11.90;;;;;;;9.54;61.98;102383.09;4987682;28;20189;-73
2022/03/16 09:11:57;;;;;;;23.70;12.05;;;;;;;9.43;62.06;102377.22;4989093;28;20057;-73
2022/03/16 09:14:22;;;;;;;20.75;11.45;;;;;;;9.65;62.21;102372.06;4987646;28;20112;-73
2022/03/16 09:16:48;;;;;;;21.30;11.18;;;;;;;9.62;60.99;102372.16;4987934;28;20042;-73
2022/03/16 09:19:20;;;;;;;22.63;11.10;;;;;;;9.66;60.89;102376.47;4990281;28;20807;-72
2022/03/16 09:21:47;;;;;;;24.52;12.07;;;;;;;9.76;60.85;102372.56;4974893;28;20041;-72
2022/03/16 09:24:13;;;;;;;23.27;11.48;;;;;;;10.23;60.71;102370.81;4969043;28;20047;-71
2022/03/16 09:26:39;;;;;;;21.70;11.60;;;;;;;10.36;59.87;102363.25;4967559;28;20045;-71
2022/03/16 09:29:07;;;;;;;21.23;11.73;;;;;;;10.08;60.51;102355.38;4968844;28;20134;-71
2022/03/16 09:31:34;;;;;;;19.10;10.63;;;;;;;9.80;59.76;102364.41;4969810;28;20043;-73
2022/03/16 09:33:59;;;;;;;23.05;11.88;;;;;;;10.03;59.86;102360.88;4969814;28;20062;-71
2022/03/16 09:36:25;;;;;;;25.15;11.68;;;;;;;10.27;60.20;102360.94;4966262;28;20042;-71
2022/03/16 09:38:50;;;;;;;20.73;11.93;;;;;;;10.28;59.41;102360.00;4969247;28;20047;-73
2022/03/16 09:41:16;;;;;;;20.65;10.93;;;;;;;10.15;59.69;102358.72;4969268;28;20042;-72
2022/03/16 09:43:43;;;;;;;23.88;12.27;;;;;;;10.31;59.36;102365.25;4969862;28;20050;-70
2022/03/16 09:46:11;;;;;;;19.20;11.02;;;;;;;10.11;59.04;102368.63;4970600;28;20578;-72
2022/03/16 09:48:40;;;;;;;19.95;11.95;;;;;;;10.16;58.30;102365.78;4972353;28;20074;-72
2022/03/16 09:51:09;;;;;;;19.40;11.45;;;;;;;10.42;59.62;102363.03;4971522;28;20049;-70
2022/03/16 09:53:36;;;;;;;26.95;12.10;;;;;;;10.43;58.40;102362.09;4969039;28;20049;-70
2022/03/16 09:56:01;;;;;;;19.52;11.55;;;;;;;10.51;57.73;102361.81;4967075;28;20053;-72
2022/03/16 09:58:27;;;;;;;22.35;12.45;;;;;;;11.11;57.09;102358.50;4973949;28;20043;-72
2022/03/16 10:00:53;;;;;;;22.50;12.68;;;;;;;10.79;57.65;102361.56;4974740;28;20498;-73
2022/03/16 10:03:21;;;;;;;20.40;11.93;;;;;;;11.11;57.19;102361.16;4971419;28;20085;-71
2022/03/16 10:05:47;;;;;;;24.92;13.27;;;;;;;10.98;57.84;102356.38;4972569;28;20043;-72
2022/03/16 10:08:14;;;;;;;23.42;12.60;;;;;;;11.10;57.97;102346.06;4973256;28;20138;-72
2022/03/16 10:13:25;;;;;;;24.70;12.73;;;;;;;11.12;57.28;102341.53;4981354;28;20038;-71
2022/03/16 10:15:52;;;;;;;23.20;11.98;;;;;;;10.84;57.35;102336.47;4996610;28;20038;-71
2022/03/16 10:18:22;;;;;;;23.67;12.98;;;;;;;10.84;56.57;102344.47;4998311;28;20038;-71
2022/03/16 10:20:48;;;;;;;21.00;12.95;;;;;;;11.36;57.03;102339.63;4992213;28;20152;-71
2022/03/16 10:23:17;;;;;;;24.60;12.80;;;;;;;11.31;55.64;102338.09;4991281;28;20058;-71
2022/03/16 10:25:51;;;;;;;26.00;12.40;;;;;;;11.52;56.16;102338.97;4990883;28;20049;-71
2022/03/16 10:28:20;;;;;;;23.38;13.68;;;;;;;11.94;55.75;102338.91;4990290;28;20042;-71
2022/03/16 10:30:58;;;;;;;19.00;11.70;;;;;;;11.70;56.35;102335.50;4973441;28;20034;-71
2022/03/16 10:33:30;;;;;;;20.30;12.00;;;;;;;11.92;54.15;102330.97;4993694;28;20057;-70
2022/03/16 10:36:05;;;;;;;19.00;11.48;;;;;;;11.64;55.52;102331.28;4994704;28;20049;-71
2022/03/16 10:38:42;;;;;;;23.25;12.90;;;;;;;11.79;55.23;102324.38;4993724;28;20042;-71
2022/03/16 10:46:34;;;;;;;21.55;11.52;;;;;;;11.91;54.79;102325.69;4992954;28;20042;-70
2022/03/16 10:46:46;;;;;;;22.83;11.02;;;;;;;11.81;53.49;102314.50;4993982;28;20049;-71
2022/03/16 10:49:16;;;;;;;23.48;12.40;;;;;;;12.34;54.05;102323.69;4975773;28;20042;-71
2022/03/16 10:51:43;;;;;;;19.88;11.18;;;;;;;12.12;53.23;102327.38;4994319;28;20039;-71
2022/03/16 10:54:08;;;;;;;17.30;10.05;;;;;;;12.09;52.05;102318.63;4995445;28;20054;-71
2022/03/16 10:56:38;;;;;;;18.70;10.48;;;;;;;12.37;51.89;102310.19;4993677;28;20160;-71
2022/03/16 10:59:04;;;;;;;23.98;11.40;;;;;;;12.40;50.92;102308.25;4970517;28;20052;-71
2022/03/16 11:01:33;;;;;;;22.02;11.27;;;;;;;12.90;50.82;102310.28;4971653;28;20038;-71
2022/03/16 11:03:58;;;;;;;17.58;9.30;;;;;;;12.57;50.72;102307.44;4972467;28;20103;-71
2022/03/16 11:06:25;;;;;;;20.13;10.23;;;;;;;12.41;49.47;102311.78;4993473;28;20074;-70
2022/03/16 11:08:51;;;;;;;18.25;9.43;;;;;;;12.64;49.65;102318.69;4995981;28;20050;-71
2022/03/16 11:14:04;;;;;;;19.60;10.35;;;;;;;12.89;50.62;102313.88;4962884;28;20077;-70
2022/03/16 11:16:31;;;;;;;17.00;10.38;;;;;;;13.18;49.33;102306.19;5000720;28;20105;-71
2022/03/16 11:19:02;;;;;;;17.00;9.82;;;;;;;13.38;47.96;102305.22;5000121;28;20034;-70